ADDS METAR Data INFO
IDs: Format: Raw Decoded Include TAF

Data at: 1954 UTC 18 Feb 2018

KFOE 181853Z 18024G33KT 10SM CLR 13/M01 A2983 RMK AO2 PK WND 16034/1833 SLP106 T01281011
KFOE 181753Z 17019G29KT 10SM CLR 12/M02 A2989 RMK AO2 PK WND 18034/1705 SLP124 T01171017 10117 20044 58032
KFOE 181653Z 18021G30KT 10SM CLR 10/M03 A2994 RMK AO2 PK WND 18035/1554 SLP144 T01001028
KFOE 181553Z 18025G37KT 10SM CLR 09/M03 A2995 RMK AO2 PK WND 17037/1551 SLP148 T00941033
KFOE 181453Z 17018G24KT 10SM CLR 07/00 A2998 RMK AO2 PK WND 17026/1415 SLP160 T00720000 56014
KFOE 181353Z 17015G24KT 10SM CLR 05/01 A3000 RMK AO2 SLP164 T00500011
KFOE 181253Z 17016KT 10SM CLR 05/01 A2999 RMK AO2 SLP160 T00500011
KFOE 181153Z 17011KT 10SM CLR 04/01 A3003 RMK AO2 SLP170 T00440006 10050 21033 56023
KFOE 181053Z AUTO 18012KT 10SM CLR 04/M01 A3005 RMK AO2 SLP179 T00441006
KFOE 180953Z AUTO 17011KT 10SM CLR 04/M03 A3006 RMK AO2 SLP182 T00441033
KFOE 180853Z AUTO 17009KT 10SM CLR 03/M06 A3010 RMK AO2 SLP194 T00331056 56017
KFOE 180753Z AUTO 16009KT 10SM CLR 03/M06 A3012 RMK AO2 SLP202 T00281056
KFOE 180653Z AUTO 16005KT 10SM CLR M03/M08 A3012 RMK AO2 SLP206 T10331078
KFOE 180553Z AUTO 13005KT 10SM CLR M01/M08 A3015 RMK AO2 SLP215 T10111078 10100 21022 401391022 58002
KFOE 180453Z AUTO 12003KT 10SM CLR M02/M08 A3015 RMK AO2 SLP216 T10171078
KFOE 180353Z 14004KT 10SM CLR M02/M08 A3016 RMK AO2 SLP220 T10171083
KFOE 180253Z 00000KT 10SM CLR M01/M08 A3015 RMK AO2 SLP220 T10061078 50008
KFOE 180153Z 00000KT 10SM CLR 02/M07 A3016 RMK AO2 SLP220 T00171072
KFOE 180053Z 00000KT 10SM CLR 06/M08 A3015 RMK AO2 SLP216 T00611083
KFOE 172353Z 30004KT 10SM CLR 10/M08 A3013 RMK AO2 SLP207 T01001083 10139 20100 53010
KFOE 172253Z 32006KT 10SM CLR 13/M08 A3011 RMK AO2 SLP200 T01281078
KFOE 172153Z 30013G20KT 10SM CLR 13/M07 A3011 RMK AO2 SLP199 T01331072
KFOE 172053Z 32013KT 10SM CLR 14/M07 A3010 RMK AO2 SLP196 T01391067 53016
KFOE 171953Z 30018KT 10SM CLR 13/M06 A3008 RMK AO2 PK WND 30026/1904 SLP189 T01331056
KFOE 171853Z 31016G23KT 10SM CLR 12/M04 A3006 RMK AO2 SLP185 T01221044
KFOE 171753Z 31012KT 10SM CLR 10/M04 A3005 RMK AO2 SLP182 T01001044 10106 20000 53018
KFOE 171653Z 29016KT 10SM CLR 09/M03 A3002 RMK AO2 SLP170 T00941033
KFOE 171553Z 27015KT 10SM CLR 06/M01 A3001 RMK AO2 SLP167 T00611006
KFOE 171453Z 22012KT 10SM CLR 03/01 A3000 RMK AO2 SLP166 T00280006 53017
KFOE 171420Z 21010KT 10SM SCT009 02/01 A2999 RMK AO2 T00220006
KFOE 171353Z 20010KT 9SM BKN009 OVC050 01/00 A2997 RMK AO2 CIG 006V011 SLP157 T00110000
KFOE 171300Z 18008KT 10SM BKN008 OVC020 01/M01 A2995 RMK AO2 T00061006
KFOE 171253Z 18007KT 10SM SCT008 OVC020 01/M01 A2995 RMK AO2 SLP149 T00061011
KFOE 171229Z 17007KT 10SM BKN021 OVC038 00/M02 A2994 RMK AO2 T00001017
KFOE 171153Z AUTO 17006KT 7SM FEW029 BKN041 OVC048 00/M04 A2995 RMK AO2 RAB20E31UPB31E53 SLP148 P0000 60000 T00001039 10006 21017 56028
KFOE 171053Z AUTO 13006KT 10SM OVC080 00/M08 A2995 RMK AO2 SLP151 T00001083
KFOE 170953Z AUTO 13005KT 10SM OVC095 00/M09 A3000 RMK AO2 SLP166 T00001089
KFOE 170853Z AUTO 09003KT 10SM OVC100 M01/M09 A3003 RMK AO2 SLP178 T10061089 56028